This is the latest recevied weather packets stored in our database for station/object CE3MXM-12. If no packets are shown the sender has not sent any weather packets the latest 1 day(s).
| Time | Temp. | Humidity | Pressure | Rain* | Wind** | Luminosity | Snow |
|---|---|---|---|---|---|---|---|
| 1777973998 | 13.89° C | 73% | 1013.8 hPa | - | 0.45 m/s, 155° | - | - |
| 1777973698 | 13.89° C | 73% | 1014 hPa | - | 2.24 m/s, 167° | - | - |
| 1777973398 | 13.89° C | 73% | 1013.9 hPa | - | 1.79 m/s, 184° | - | - |
| 1777973097 | 13.89° C | 72% | 1013.6 hPa | - | 1.34 m/s, 142° | - | - |
| 1777972797 | 13.89° C | 71% | 1013.8 hPa | - | 0 m/s | - | - |
| 1777972497 | 14.44° C | 70% | 1013.7 hPa | - | 0.89 m/s, 151° | - | - |
| 1777972197 | 14.44° C | 71% | 1013.5 hPa | - | 2.24 m/s, 186° | - | - |
| 1777971912 | 14.44° C | 71% | 1013.4 hPa | - | 3.58 m/s, 197° | - | - |
| 1777971597 | 13.89° C | 72% | 1013.4 hPa | - | 1.79 m/s, 177° | - | - |
| 1777971297 | 13.89° C | 73% | 1013.3 hPa | - | 2.68 m/s, 195° | - | - |
| 1777970997 | 13.89° C | 73% | 1013.2 hPa | - | 0.89 m/s, 160° | - | - |
| 1777970697 | 13.89° C | 73% | 1013.4 hPa | - | 1.79 m/s, 155° | - | - |
| 1777970397 | 13.89° C | 72% | 1013.1 hPa | - | 0.89 m/s, 158° | - | - |
| 1777970096 | 13.89° C | 72% | 1013 hPa | - | 0 m/s | - | - |
| 1777969796 | 14.44° C | 71% | 1013.2 hPa | - | 0.89 m/s, 170° | - | - |
| 1777969496 | 13.89° C | 71% | 1013.2 hPa | - | 0.45 m/s, 171° | - | - |
| 1777969196 | 13.89° C | 72% | 1013.1 hPa | - | 0.89 m/s, 172° | - | - |
| 1777968896 | 13.89° C | 72% | 1012.7 hPa | - | 0.89 m/s, 170° | - | - |
| 1777968596 | 13.89° C | 72% | 1012.6 hPa | - | 0.89 m/s, 159° | - | - |
| 1777968296 | 13.89° C | 72% | 1013 hPa | - | 0 m/s | - | - |
| 1777967996 | 13.89° C | 73% | 1012.7 hPa | - | 0.89 m/s, 168° | - | - |
| 1777967696 | 13.89° C | 73% | 1012.8 hPa | - | 0 m/s | - | - |
| 1777967395 | 13.89° C | 73% | 1012.8 hPa | - | 0 m/s | - | - |
| 1777967095 | 14.44° C | 72% | 1012.9 hPa | - | 0.89 m/s, 150° | - | - |
| 1777966795 | 14.44° C | 72% | 1013.3 hPa | - | 0.89 m/s, 168° | - | - |
* Rain since midnight (hover to see other rain measurements)
** Current wind speed in m/s (hover to see current wind gust speed)